sensor_id;sensor_type;location;lat;lon;timestamp;temperature;humidity
1383;DHT22;685;47.196;11.880;2023-01-30T00:00:53;-3.70;99.90
1383;DHT22;685;47.196;11.880;2023-01-30T00:03:21;-3.80;99.90
1383;DHT22;685;47.196;11.880;2023-01-30T00:05:47;-4.00;99.90
1383;DHT22;685;47.196;11.880;2023-01-30T00:08:15;-4.00;99.90
1383;DHT22;685;47.196;11.880;2023-01-30T00:10:42;-3.90;99.90
1383;DHT22;685;47.196;11.880;2023-01-30T00:13:09;-3.90;99.90
1383;DHT22;685;47.196;11.880;2023-01-30T00:15:37;-3.90;99.90
1383;DHT22;685;47.196;11.880;2023-01-30T00:18:04;-3.70;99.90
1383;DHT22;685;47.196;11.880;2023-01-30T00:20:31;-3.60;99.90
1383;DHT22;685;47.196;11.880;2023-01-30T00:22:58;-3.40;99.90
1383;DHT22;685;47.196;11.880;2023-01-30T00:25:25;-3.50;99.90
1383;DHT22;685;47.196;11.880;2023-01-30T00:27:52;-3.70;99.90
1383;DHT22;685;47.196;11.880;2023-01-30T00:30:19;-3.50;99.90
1383;DHT22;685;47.196;11.880;2023-01-30T00:32:53;-3.50;99.90
1383;DHT22;685;47.196;11.880;2023-01-30T00:35:20;-3.60;99.90
1383;DHT22;685;47.196;11.880;2023-01-30T00:37:47;-3.50;99.90
1383;DHT22;685;47.196;11.880;2023-01-30T00:40:14;-3.40;99.90
1383;DHT22;685;47.196;11.880;2023-01-30T00:42:40;-3.50;99.90
1383;DHT22;685;47.196;11.880;2023-01-30T00:45:25;-4.00;99.90
1383;DHT22;685;47.196;11.880;2023-01-30T00:48:10;-4.10;99.90
1383;DHT22;685;47.196;11.880;2023-01-30T00:50:37;-3.80;99.90
1383;DHT22;685;47.196;11.880;2023-01-30T00:53:10;-3.70;99.90
1383;DHT22;685;47.196;11.880;2023-01-30T00:55:37;-3.80;99.90
1383;DHT22;685;47.196;11.880;2023-01-30T00:58:05;-4.00;99.90
1383;DHT22;685;47.196;11.880;2023-01-30T01:00:32;-4.10;99.90
1383;DHT22;685;47.196;11.880;2023-01-30T01:02:59;-4.70;99.90
1383;DHT22;685;47.196;11.880;2023-01-30T01:05:28;-4.70;99.90
1383;DHT22;685;47.196;11.880;2023-01-30T01:07:55;-4.30;99.90
1383;DHT22;685;47.196;11.880;2023-01-30T01:10:22;-4.20;99.90
1383;DHT22;685;47.196;11.880;2023-01-30T01:12:49;-4.00;99.90
1383;DHT22;685;47.196;11.880;2023-01-30T01:15:18;-3.90;99.90
1383;DHT22;685;47.196;11.880;2023-01-30T01:17:45;-3.90;99.90
1383;DHT22;685;47.196;11.880;2023-01-30T01:20:12;-3.90;99.90
1383;DHT22;685;47.196;11.880;2023-01-30T01:22:41;-4.10;99.90
1383;DHT22;685;47.196;11.880;2023-01-30T01:25:08;-4.20;99.90
1383;DHT22;685;47.196;11.880;2023-01-30T01:27:36;-4.20;99.90
1383;DHT22;685;47.196;11.880;2023-01-30T01:30:04;-4.10;99.90
1383;DHT22;685;47.196;11.880;2023-01-30T01:32:31;-3.90;99.90
1383;DHT22;685;47.196;11.880;2023-01-30T01:34:57;-4.00;99.90
1383;DHT22;685;47.196;11.880;2023-01-30T01:37:24;-4.10;99.90
1383;DHT22;685;47.196;11.880;2023-01-30T01:39:52;-4.00;99.90
1383;DHT22;685;47.196;11.880;2023-01-30T01:42:39;-4.00;99.90
1383;DHT22;685;47.196;11.880;2023-01-30T01:45:17;-3.90;99.90
1383;DHT22;685;47.196;11.880;2023-01-30T01:47:51;-4.00;99.90
1383;DHT22;685;47.196;11.880;2023-01-30T01:50:23;-4.20;99.90
1383;DHT22;685;47.196;11.880;2023-01-30T01:52:52;-4.10;99.90
1383;DHT22;685;47.196;11.880;2023-01-30T01:55:22;-4.40;99.90
1383;DHT22;685;47.196;11.880;2023-01-30T01:57:53;-4.70;99.90
1383;DHT22;685;47.196;11.880;2023-01-30T02:00:22;-4.90;99.90
1383;DHT22;685;47.196;11.880;2023-01-30T02:02:53;-4.80;99.90
1383;DHT22;685;47.196;11.880;2023-01-30T02:05:23;-4.70;99.90
1383;DHT22;685;47.196;11.880;2023-01-30T02:07:57;-4.60;99.90
1383;DHT22;685;47.196;11.880;2023-01-30T02:10:33;-4.40;99.90
1383;DHT22;685;47.196;11.880;2023-01-30T02:13:02;-4.30;99.90
1383;DHT22;685;47.196;11.880;2023-01-30T02:15:29;-4.30;99.90
1383;DHT22;685;47.196;11.880;2023-01-30T02:17:56;-4.30;99.90
1383;DHT22;685;47.196;11.880;2023-01-30T02:20:30;-4.60;99.90
1383;DHT22;685;47.196;11.880;2023-01-30T02:26:17;-4.60;99.90
1383;DHT22;685;47.196;11.880;2023-01-30T02:31:54;-4.40;99.90
1383;DHT22;685;47.196;11.880;2023-01-30T02:34:37;-4.50;99.90
1383;DHT22;685;47.196;11.880;2023-01-30T02:37:15;-4.70;99.90
1383;DHT22;685;47.196;11.880;2023-01-30T02:39:51;-4.60;99.90
1383;DHT22;685;47.196;11.880;2023-01-30T02:42:27;-4.50;99.90
1383;DHT22;685;47.196;11.880;2023-01-30T02:45:00;-4.60;99.90
1383;DHT22;685;47.196;11.880;2023-01-30T02:47:37;-4.70;99.90
1383;DHT22;685;47.196;11.880;2023-01-30T02:50:09;-4.60;99.90
1383;DHT22;685;47.196;11.880;2023-01-30T02:52:38;-4.70;99.90
1383;DHT22;685;47.196;11.880;2023-01-30T02:55:08;-4.60;99.90
1383;DHT22;685;47.196;11.880;2023-01-30T02:57:35;-4.30;99.90
1383;DHT22;685;47.196;11.880;2023-01-30T03:00:04;-4.20;99.90
1383;DHT22;685;47.196;11.880;2023-01-30T03:02:48;-4.90;99.90
1383;DHT22;685;47.196;11.880;2023-01-30T03:05:43;-5.00;99.90
1383;DHT22;685;47.196;11.880;2023-01-30T03:08:22;-5.10;99.90
1383;DHT22;685;47.196;11.880;2023-01-30T03:10:55;-5.00;99.90
1383;DHT22;685;47.196;11.880;2023-01-30T03:13:28;-5.00;99.90
1383;DHT22;685;47.196;11.880;2023-01-30T03:16:02;-5.20;99.90
1383;DHT22;685;47.196;11.880;2023-01-30T03:18:31;-5.40;99.90
1383;DHT22;685;47.196;11.880;2023-01-30T03:21:03;-4.90;99.90
1383;DHT22;685;47.196;11.880;2023-01-30T03:23:30;-4.60;99.90
1383;DHT22;685;47.196;11.880;2023-01-30T03:25:57;-4.50;99.90
1383;DHT22;685;47.196;11.880;2023-01-30T03:28:25;-4.40;99.90
1383;DHT22;685;47.196;11.880;2023-01-30T03:30:52;-4.70;99.90
1383;DHT22;685;47.196;11.880;2023-01-30T03:33:19;-4.60;99.90
1383;DHT22;685;47.196;11.880;2023-01-30T03:35:48;-4.50;99.90
1383;DHT22;685;47.196;11.880;2023-01-30T03:38:15;-4.80;99.90
1383;DHT22;685;47.196;11.880;2023-01-30T03:40:42;-4.80;99.90
1383;DHT22;685;47.196;11.880;2023-01-30T03:43:09;-4.60;99.90
1383;DHT22;685;47.196;11.880;2023-01-30T03:45:36;-4.50;99.90
1383;DHT22;685;47.196;11.880;2023-01-30T03:48:03;-4.40;99.90
1383;DHT22;685;47.196;11.880;2023-01-30T03:50:30;-4.30;99.90
1383;DHT22;685;47.196;11.880;2023-01-30T03:52:58;-4.40;99.90
1383;DHT22;685;47.196;11.880;2023-01-30T03:55:25;-4.20;99.90
1383;DHT22;685;47.196;11.880;2023-01-30T03:57:54;-4.30;99.90
1383;DHT22;685;47.196;11.880;2023-01-30T04:00:22;-4.60;99.90
1383;DHT22;685;47.196;11.880;2023-01-30T04:02:49;-4.60;99.90
1383;DHT22;685;47.196;11.880;2023-01-30T04:05:16;-4.60;99.90
1383;DHT22;685;47.196;11.880;2023-01-30T04:07:43;-4.80;99.90
1383;DHT22;685;47.196;11.880;2023-01-30T04:10:11;-4.60;99.90
1383;DHT22;685;47.196;11.880;2023-01-30T04:12:40;-4.40;99.90
1383;DHT22;685;47.196;11.880;2023-01-30T04:15:08;-4.40;99.90
1383;DHT22;685;47.196;11.880;2023-01-30T04:17:35;-4.40;99.90
1383;DHT22;685;47.196;11.880;2023-01-30T04:20:03;-4.40;99.90
1383;DHT22;685;47.196;11.880;2023-01-30T04:22:30;-4.30;99.90
1383;DHT22;685;47.196;11.880;2023-01-30T04:24:57;-4.70;99.90
1383;DHT22;685;47.196;11.880;2023-01-30T04:27:25;-4.60;99.90
1383;DHT22;685;47.196;11.880;2023-01-30T04:29:52;-4.40;99.90
1383;DHT22;685;47.196;11.880;2023-01-30T04:32:19;-4.30;99.90
1383;DHT22;685;47.196;11.880;2023-01-30T04:34:46;-4.40;99.90
1383;DHT22;685;47.196;11.880;2023-01-30T04:37:13;-4.50;99.90
1383;DHT22;685;47.196;11.880;2023-01-30T04:39:40;-4.30;99.90
1383;DHT22;685;47.196;11.880;2023-01-30T04:42:06;-4.20;99.90
1383;DHT22;685;47.196;11.880;2023-01-30T04:44:35;-4.10;99.90
1383;DHT22;685;47.196;11.880;2023-01-30T04:47:01;-4.50;99.90
1383;DHT22;685;47.196;11.880;2023-01-30T04:49:28;-5.50;99.90
1383;DHT22;685;47.196;11.880;2023-01-30T04:51:55;-5.90;99.90
1383;DHT22;685;47.196;11.880;2023-01-30T04:54:22;-5.60;99.90
1383;DHT22;685;47.196;11.880;2023-01-30T04:56:49;-5.20;99.90
1383;DHT22;685;47.196;11.880;2023-01-30T04:59:16;-5.10;99.90
1383;DHT22;685;47.196;11.880;2023-01-30T05:01:44;-4.70;99.90
1383;DHT22;685;47.196;11.880;2023-01-30T05:04:11;-4.50;99.90
1383;DHT22;685;47.196;11.880;2023-01-30T05:06:38;-4.40;99.90
1383;DHT22;685;47.196;11.880;2023-01-30T05:09:06;-4.30;99.90
1383;DHT22;685;47.196;11.880;2023-01-30T05:11:33;-4.80;99.90
1383;DHT22;685;47.196;11.880;2023-01-30T05:14:00;-4.70;99.90
1383;DHT22;685;47.196;11.880;2023-01-30T05:16:27;-4.60;99.90
1383;DHT22;685;47.196;11.880;2023-01-30T05:18:56;-4.60;99.90
1383;DHT22;685;47.196;11.880;2023-01-30T05:21:25;-5.00;99.90
1383;DHT22;685;47.196;11.880;2023-01-30T05:23:52;-4.80;99.90
1383;DHT22;685;47.196;11.880;2023-01-30T05:26:21;-4.80;99.90
1383;DHT22;685;47.196;11.880;2023-01-30T05:28:50;-4.70;99.90
1383;DHT22;685;47.196;11.880;2023-01-30T05:31:18;-4.80;99.90
1383;DHT22;685;47.196;11.880;2023-01-30T05:33:46;-5.50;99.90
1383;DHT22;685;47.196;11.880;2023-01-30T05:36:16;-5.30;99.90
1383;DHT22;685;47.196;11.880;2023-01-30T05:38:44;-5.50;99.90
1383;DHT22;685;47.196;11.880;2023-01-30T05:41:12;-5.00;99.90
1383;DHT22;685;47.196;11.880;2023-01-30T05:43:40;-4.60;99.90
1383;DHT22;685;47.196;11.880;2023-01-30T05:46:09;-4.40;99.90
1383;DHT22;685;47.196;11.880;2023-01-30T05:48:36;-4.90;99.90
1383;DHT22;685;47.196;11.880;2023-01-30T05:51:03;-5.40;99.90
1383;DHT22;685;47.196;11.880;2023-01-30T05:53:33;-5.20;99.90
1383;DHT22;685;47.196;11.880;2023-01-30T05:56:02;-5.50;99.90
1383;DHT22;685;47.196;11.880;2023-01-30T05:58:29;-5.60;99.90
1383;DHT22;685;47.196;11.880;2023-01-30T06:00:59;-5.20;99.90
1383;DHT22;685;47.196;11.880;2023-01-30T06:03:27;-5.00;99.90
1383;DHT22;685;47.196;11.880;2023-01-30T06:05:54;-5.30;99.90
1383;DHT22;685;47.196;11.880;2023-01-30T06:08:21;-5.00;99.90
1383;DHT22;685;47.196;11.880;2023-01-30T06:10:49;-4.80;99.90
1383;DHT22;685;47.196;11.880;2023-01-30T06:13:16;-4.60;99.90
1383;DHT22;685;47.196;11.880;2023-01-30T06:15:43;-4.30;99.90
1383;DHT22;685;47.196;11.880;2023-01-30T06:18:10;-4.10;99.90
1383;DHT22;685;47.196;11.880;2023-01-30T06:20:37;-4.10;99.90
1383;DHT22;685;47.196;11.880;2023-01-30T06:23:04;-4.10;99.90
1383;DHT22;685;47.196;11.880;2023-01-30T06:25:30;-4.40;99.90
1383;DHT22;685;47.196;11.880;2023-01-30T06:27:59;-4.40;99.90
1383;DHT22;685;47.196;11.880;2023-01-30T06:30:26;-4.70;99.90
1383;DHT22;685;47.196;11.880;2023-01-30T06:32:52;-4.70;99.90
1383;DHT22;685;47.196;11.880;2023-01-30T06:35:19;-4.50;99.90
1383;DHT22;685;47.196;11.880;2023-01-30T06:37:46;-4.40;99.90
1383;DHT22;685;47.196;11.880;2023-01-30T06:40:13;-4.60;99.90
1383;DHT22;685;47.196;11.880;2023-01-30T06:42:44;-4.80;99.90
1383;DHT22;685;47.196;11.880;2023-01-30T06:45:13;-5.10;99.90
1383;DHT22;685;47.196;11.880;2023-01-30T06:47:44;-4.80;99.90
1383;DHT22;685;47.196;11.880;2023-01-30T06:50:11;-4.60;99.90
1383;DHT22;685;47.196;11.880;2023-01-30T06:52:40;-5.60;99.90
1383;DHT22;685;47.196;11.880;2023-01-30T06:55:08;-6.30;99.90
1383;DHT22;685;47.196;11.880;2023-01-30T06:57:35;-6.20;99.90
1383;DHT22;685;47.196;11.880;2023-01-30T07:00:03;-5.80;99.90
1383;DHT22;685;47.196;11.880;2023-01-30T07:02:32;-5.60;99.90
1383;DHT22;685;47.196;11.880;2023-01-30T07:05:00;-5.70;99.90
1383;DHT22;685;47.196;11.880;2023-01-30T07:07:27;-5.60;99.90
1383;DHT22;685;47.196;11.880;2023-01-30T07:09:55;-5.30;99.90
1383;DHT22;685;47.196;11.880;2023-01-30T07:12:22;-4.90;99.90
1383;DHT22;685;47.196;11.880;2023-01-30T07:14:49;-4.70;99.90
1383;DHT22;685;47.196;11.880;2023-01-30T07:17:17;-4.70;99.90
1383;DHT22;685;47.196;11.880;2023-01-30T07:19:45;-4.80;99.90
1383;DHT22;685;47.196;11.880;2023-01-30T07:22:12;-4.80;99.90
1383;DHT22;685;47.196;11.880;2023-01-30T07:24:39;-4.90;99.90
1383;DHT22;685;47.196;11.880;2023-01-30T07:27:08;-4.90;99.90
1383;DHT22;685;47.196;11.880;2023-01-30T07:29:35;-4.90;99.90
1383;DHT22;685;47.196;11.880;2023-01-30T07:32:03;-4.70;99.90
1383;DHT22;685;47.196;11.880;2023-01-30T07:34:30;-4.60;99.90
1383;DHT22;685;47.196;11.880;2023-01-30T07:36:58;-4.70;99.90
1383;DHT22;685;47.196;11.880;2023-01-30T07:39:25;-4.70;99.90
1383;DHT22;685;47.196;11.880;2023-01-30T07:41:52;-4.60;99.90
1383;DHT22;685;47.196;11.880;2023-01-30T07:44:19;-4.60;99.90
1383;DHT22;685;47.196;11.880;2023-01-30T07:46:46;-4.50;99.90
1383;DHT22;685;47.196;11.880;2023-01-30T07:49:12;-4.50;99.90
1383;DHT22;685;47.196;11.880;2023-01-30T07:51:39;-4.50;99.90
1383;DHT22;685;47.196;11.880;2023-01-30T07:54:07;-4.40;99.90
1383;DHT22;685;47.196;11.880;2023-01-30T07:56:34;-4.50;99.90
1383;DHT22;685;47.196;11.880;2023-01-30T07:59:01;-4.30;99.90
1383;DHT22;685;47.196;11.880;2023-01-30T08:01:30;-4.30;99.90
1383;DHT22;685;47.196;11.880;2023-01-30T08:03:57;-4.30;99.90
1383;DHT22;685;47.196;11.880;2023-01-30T08:06:24;-4.20;99.90
1383;DHT22;685;47.196;11.880;2023-01-30T08:08:51;-4.80;99.90
1383;DHT22;685;47.196;11.880;2023-01-30T08:11:19;-5.10;99.90
1383;DHT22;685;47.196;11.880;2023-01-30T08:13:46;-5.20;99.90
1383;DHT22;685;47.196;11.880;2023-01-30T08:16:13;-5.20;99.90
1383;DHT22;685;47.196;11.880;2023-01-30T08:18:40;-5.00;99.90
1383;DHT22;685;47.196;11.880;2023-01-30T08:21:07;-4.70;99.90
1383;DHT22;685;47.196;11.880;2023-01-30T08:23:34;-4.80;99.90
1383;DHT22;685;47.196;11.880;2023-01-30T08:26:02;-4.80;99.90
1383;DHT22;685;47.196;11.880;2023-01-30T08:28:32;-4.60;99.90
1383;DHT22;685;47.196;11.880;2023-01-30T08:30:59;-4.50;99.90
1383;DHT22;685;47.196;11.880;2023-01-30T08:33:26;-4.10;99.90
1383;DHT22;685;47.196;11.880;2023-01-30T08:35:54;-3.90;99.90
1383;DHT22;685;47.196;11.880;2023-01-30T08:38:21;-4.00;99.90
1383;DHT22;685;47.196;11.880;2023-01-30T08:40:48;-3.90;99.90
1383;DHT22;685;47.196;11.880;2023-01-30T08:43:15;-4.10;99.90
1383;DHT22;685;47.196;11.880;2023-01-30T08:45:43;-4.60;99.90
1383;DHT22;685;47.196;11.880;2023-01-30T08:48:10;-4.40;99.90
1383;DHT22;685;47.196;11.880;2023-01-30T08:50:37;-4.60;99.90
1383;DHT22;685;47.196;11.880;2023-01-30T08:53:04;-4.60;99.90
1383;DHT22;685;47.196;11.880;2023-01-30T08:55:31;-4.30;99.90
1383;DHT22;685;47.196;11.880;2023-01-30T08:57:58;-4.00;99.90
1383;DHT22;685;47.196;11.880;2023-01-30T09:00:26;-4.00;99.90
1383;DHT22;685;47.196;11.880;2023-01-30T09:02:55;-3.90;99.90
1383;DHT22;685;47.196;11.880;2023-01-30T09:05:23;-3.90;99.90
1383;DHT22;685;47.196;11.880;2023-01-30T09:07:50;-4.40;99.90
1383;DHT22;685;47.196;11.880;2023-01-30T09:10:17;-4.40;99.90
1383;DHT22;685;47.196;11.880;2023-01-30T09:12:44;-4.40;99.90
1383;DHT22;685;47.196;11.880;2023-01-30T09:15:11;-4.60;99.90
1383;DHT22;685;47.196;11.880;2023-01-30T09:17:38;-4.70;99.90
1383;DHT22;685;47.196;11.880;2023-01-30T09:20:09;-4.50;99.90
1383;DHT22;685;47.196;11.880;2023-01-30T09:22:36;-4.10;99.90
1383;DHT22;685;47.196;11.880;2023-01-30T09:25:04;-4.20;99.90
1383;DHT22;685;47.196;11.880;2023-01-30T09:27:31;-4.40;99.90
1383;DHT22;685;47.196;11.880;2023-01-30T09:29:58;-5.00;99.90
1383;DHT22;685;47.196;11.880;2023-01-30T09:32:25;-5.20;99.90
1383;DHT22;685;47.196;11.880;2023-01-30T09:34:52;-5.20;99.90
1383;DHT22;685;47.196;11.880;2023-01-30T09:37:20;-4.90;99.90
1383;DHT22;685;47.196;11.880;2023-01-30T09:39:47;-4.70;99.90
1383;DHT22;685;47.196;11.880;2023-01-30T09:42:29;-4.30;99.90
1383;DHT22;685;47.196;11.880;2023-01-30T09:45:22;-4.50;99.90
1383;DHT22;685;47.196;11.880;2023-01-30T09:47:59;-4.60;99.90
1383;DHT22;685;47.196;11.880;2023-01-30T09:50:48;-4.30;99.90
1383;DHT22;685;47.196;11.880;2023-01-30T09:53:27;-3.70;99.90
1383;DHT22;685;47.196;11.880;2023-01-30T09:55:57;-3.30;99.90
1383;DHT22;685;47.196;11.880;2023-01-30T09:58:28;-3.40;99.90
1383;DHT22;685;47.196;11.880;2023-01-30T10:01:03;-3.50;99.90
1383;DHT22;685;47.196;11.880;2023-01-30T10:03:38;-3.60;99.90
1383;DHT22;685;47.196;11.880;2023-01-30T10:06:09;-3.60;99.90
1383;DHT22;685;47.196;11.880;2023-01-30T10:08:49;-3.20;99.90
1383;DHT22;685;47.196;11.880;2023-01-30T10:11:30;-2.90;99.90
1383;DHT22;685;47.196;11.880;2023-01-30T10:14:19;-2.70;99.90
1383;DHT22;685;47.196;11.880;2023-01-30T10:16:58;-2.60;99.90
1383;DHT22;685;47.196;11.880;2023-01-30T10:19:43;-2.50;99.90
1383;DHT22;685;47.196;11.880;2023-01-30T10:22:23;-2.40;99.90
1383;DHT22;685;47.196;11.880;2023-01-30T10:25:03;-2.40;99.90
1383;DHT22;685;47.196;11.880;2023-01-30T10:27:34;-2.30;99.90
1383;DHT22;685;47.196;11.880;2023-01-30T10:30:05;-2.20;99.90
1383;DHT22;685;47.196;11.880;2023-01-30T10:32:38;-2.20;99.90
1383;DHT22;685;47.196;11.880;2023-01-30T10:35:14;-2.10;99.90
1383;DHT22;685;47.196;11.880;2023-01-30T10:37:45;-2.40;99.90
1383;DHT22;685;47.196;11.880;2023-01-30T10:40:18;-2.30;99.90
1383;DHT22;685;47.196;11.880;2023-01-30T10:42:54;-2.10;99.90
1383;DHT22;685;47.196;11.880;2023-01-30T10:45:31;-1.90;99.90
1383;DHT22;685;47.196;11.880;2023-01-30T10:48:15;-1.80;99.90
1383;DHT22;685;47.196;11.880;2023-01-30T10:50:50;-1.50;99.90
1383;DHT22;685;47.196;11.880;2023-01-30T10:53:25;-1.40;99.90
1383;DHT22;685;47.196;11.880;2023-01-30T10:56:01;-1.20;99.90
1383;DHT22;685;47.196;11.880;2023-01-30T10:58:34;-1.20;99.90
1383;DHT22;685;47.196;11.880;2023-01-30T11:01:06;-1.20;99.90
1383;DHT22;685;47.196;11.880;2023-01-30T11:03:39;-1.30;99.90
1383;DHT22;685;47.196;11.880;2023-01-30T11:06:11;-1.10;99.90
1383;DHT22;685;47.196;11.880;2023-01-30T11:08:41;-0.90;99.90
1383;DHT22;685;47.196;11.880;2023-01-30T11:11:27;-0.80;99.90
1383;DHT22;685;47.196;11.880;2023-01-30T11:14:03;-0.80;99.90
1383;DHT22;685;47.196;11.880;2023-01-30T11:16:31;-0.70;99.90
1383;DHT22;685;47.196;11.880;2023-01-30T11:19:03;-0.60;99.90
1383;DHT22;685;47.196;11.880;2023-01-30T11:21:31;-0.40;99.90
1383;DHT22;685;47.196;11.880;2023-01-30T11:24:03;-0.70;99.90
1383;DHT22;685;47.196;11.880;2023-01-30T11:26:34;-0.80;99.90
1383;DHT22;685;47.196;11.880;2023-01-30T11:29:15;-0.60;99.90
1383;DHT22;685;47.196;11.880;2023-01-30T11:31:48;-0.40;99.90
1383;DHT22;685;47.196;11.880;2023-01-30T11:34:17;-0.30;99.90
1383;DHT22;685;47.196;11.880;2023-01-30T11:36:45;-0.30;99.90
1383;DHT22;685;47.196;11.880;2023-01-30T11:39:21;-0.30;99.90
1383;DHT22;685;47.196;11.880;2023-01-30T11:42:02;-0.50;99.90
1383;DHT22;685;47.196;11.880;2023-01-30T11:44:32;-0.80;99.90
1383;DHT22;685;47.196;11.880;2023-01-30T11:47:02;-0.90;99.90
1383;DHT22;685;47.196;11.880;2023-01-30T11:49:32;-0.70;99.90
1383;DHT22;685;47.196;11.880;2023-01-30T11:52:03;-0.60;99.90
1383;DHT22;685;47.196;11.880;2023-01-30T11:54:32;-0.40;99.90
1383;DHT22;685;47.196;11.880;2023-01-30T11:57:03;-0.40;99.90
1383;DHT22;685;47.196;11.880;2023-01-30T11:59:32;-1.00;99.90
1383;DHT22;685;47.196;11.880;2023-01-30T12:02:03;-0.90;99.90
1383;DHT22;685;47.196;11.880;2023-01-30T12:04:31;-0.50;99.90
1383;DHT22;685;47.196;11.880;2023-01-30T12:07:07;-0.40;99.90
1383;DHT22;685;47.196;11.880;2023-01-30T12:09:40;-0.40;99.90
1383;DHT22;685;47.196;11.880;2023-01-30T12:15:19;-0.40;99.90
1383;DHT22;685;47.196;11.880;2023-01-30T12:17:51;0.00;99.90
1383;DHT22;685;47.196;11.880;2023-01-30T12:20:28;0.10;99.90
1383;DHT22;685;47.196;11.880;2023-01-30T12:23:06;0.20;99.90
1383;DHT22;685;47.196;11.880;2023-01-30T12:25:38;0.40;99.90
1383;DHT22;685;47.196;11.880;2023-01-30T12:28:13;0.50;99.90
1383;DHT22;685;47.196;11.880;2023-01-30T12:30:49;0.50;99.90
1383;DHT22;685;47.196;11.880;2023-01-30T12:33:17;0.50;99.90
1383;DHT22;685;47.196;11.880;2023-01-30T12:35:50;0.60;99.90
1383;DHT22;685;47.196;11.880;2023-01-30T12:38:40;0.20;99.90
1383;DHT22;685;47.196;11.880;2023-01-30T12:41:19;0.20;99.90
1383;DHT22;685;47.196;11.880;2023-01-30T12:44:14;0.50;99.90
1383;DHT22;685;47.196;11.880;2023-01-30T12:46:55;0.60;99.90
1383;DHT22;685;47.196;11.880;2023-01-30T12:49:36;0.80;99.90
1383;DHT22;685;47.196;11.880;2023-01-30T12:52:26;0.80;99.90
1383;DHT22;685;47.196;11.880;2023-01-30T12:54:59;0.80;99.90
1383;DHT22;685;47.196;11.880;2023-01-30T12:57:34;0.90;99.90
1383;DHT22;685;47.196;11.880;2023-01-30T13:00:16;1.00;99.90
1383;DHT22;685;47.196;11.880;2023-01-30T13:03:04;1.00;99.90
1383;DHT22;685;47.196;11.880;2023-01-30T13:05:40;1.10;99.90
1383;DHT22;685;47.196;11.880;2023-01-30T13:08:21;1.10;99.90
1383;DHT22;685;47.196;11.880;2023-01-30T13:11:00;1.10;99.90
1383;DHT22;685;47.196;11.880;2023-01-30T13:13:33;1.10;99.90
1383;DHT22;685;47.196;11.880;2023-01-30T13:16:12;1.20;99.90
1383;DHT22;685;47.196;11.880;2023-01-30T13:18:50;1.10;99.90
1383;DHT22;685;47.196;11.880;2023-01-30T13:21:24;1.20;99.90
1383;DHT22;685;47.196;11.880;2023-01-30T13:24:03;1.20;99.90
1383;DHT22;685;47.196;11.880;2023-01-30T13:26:36;1.10;99.90
1383;DHT22;685;47.196;11.880;2023-01-30T13:29:09;0.80;99.90
1383;DHT22;685;47.196;11.880;2023-01-30T13:31:44;0.90;99.90
1383;DHT22;685;47.196;11.880;2023-01-30T13:34:21;1.10;99.90
1383;DHT22;685;47.196;11.880;2023-01-30T13:36:54;1.20;99.90
1383;DHT22;685;47.196;11.880;2023-01-30T13:39:32;1.20;99.90
1383;DHT22;685;47.196;11.880;2023-01-30T13:42:04;1.30;99.90
1383;DHT22;685;47.196;11.880;2023-01-30T13:44:34;1.00;99.90
1383;DHT22;685;47.196;11.880;2023-01-30T13:47:13;1.10;99.90
1383;DHT22;685;47.196;11.880;2023-01-30T13:49:51;1.00;99.90
1383;DHT22;685;47.196;11.880;2023-01-30T13:52:28;1.10;99.90
1383;DHT22;685;47.196;11.880;2023-01-30T13:55:01;1.10;99.90
1383;DHT22;685;47.196;11.880;2023-01-30T13:57:44;1.10;99.90
1383;DHT22;685;47.196;11.880;2023-01-30T14:00:29;1.10;99.90
1383;DHT22;685;47.196;11.880;2023-01-30T14:03:19;1.10;99.90
1383;DHT22;685;47.196;11.880;2023-01-30T14:06:12;1.10;99.90
1383;DHT22;685;47.196;11.880;2023-01-30T14:08:49;1.10;99.90
1383;DHT22;685;47.196;11.880;2023-01-30T14:11:29;1.10;99.90
1383;DHT22;685;47.196;11.880;2023-01-30T14:14:00;1.10;99.90
1383;DHT22;685;47.196;11.880;2023-01-30T14:16:41;1.10;99.90
1383;DHT22;685;47.196;11.880;2023-01-30T14:19:32;1.00;99.90
1383;DHT22;685;47.196;11.880;2023-01-30T14:22:04;1.10;99.90
1383;DHT22;685;47.196;11.880;2023-01-30T14:24:42;1.00;99.90
1383;DHT22;685;47.196;11.880;2023-01-30T14:27:23;0.90;99.90
1383;DHT22;685;47.196;11.880;2023-01-30T14:29:53;0.90;99.90
1383;DHT22;685;47.196;11.880;2023-01-30T14:32:51;1.00;99.90
1383;DHT22;685;47.196;11.880;2023-01-30T14:35:21;1.00;99.90
1383;DHT22;685;47.196;11.880;2023-01-30T14:38:03;1.00;99.90
1383;DHT22;685;47.196;11.880;2023-01-30T14:40:42;0.70;99.90
1383;DHT22;685;47.196;11.880;2023-01-30T14:46:41;0.80;99.90
1383;DHT22;685;47.196;11.880;2023-01-30T14:49:41;1.10;99.90
1383;DHT22;685;47.196;11.880;2023-01-30T14:52:25;1.00;99.90
1383;DHT22;685;47.196;11.880;2023-01-30T14:54:57;1.00;99.90
1383;DHT22;685;47.196;11.880;2023-01-30T14:57:25;0.90;99.90
1383;DHT22;685;47.196;11.880;2023-01-30T15:00:01;1.00;99.90
1383;DHT22;685;47.196;11.880;2023-01-30T15:02:31;1.00;99.90
1383;DHT22;685;47.196;11.880;2023-01-30T15:05:04;0.90;99.90
1383;DHT22;685;47.196;11.880;2023-01-30T15:07:37;1.00;99.90
1383;DHT22;685;47.196;11.880;2023-01-30T15:10:18;0.90;99.90
1383;DHT22;685;47.196;11.880;2023-01-30T15:15:51;0.80;99.90
1383;DHT22;685;47.196;11.880;2023-01-30T15:18:43;0.70;99.90
1383;DHT22;685;47.196;11.880;2023-01-30T15:21:31;0.70;99.90
1383;DHT22;685;47.196;11.880;2023-01-30T15:24:13;0.80;99.90
1383;DHT22;685;47.196;11.880;2023-01-30T15:26:52;0.80;99.90
1383;DHT22;685;47.196;11.880;2023-01-30T15:29:54;0.80;99.90
1383;DHT22;685;47.196;11.880;2023-01-30T15:32:26;0.80;99.90
1383;DHT22;685;47.196;11.880;2023-01-30T15:34:54;0.90;99.90
1383;DHT22;685;47.196;11.880;2023-01-30T15:37:33;0.70;99.90
1383;DHT22;685;47.196;11.880;2023-01-30T15:40:25;0.70;99.90
1383;DHT22;685;47.196;11.880;2023-01-30T15:43:06;0.60;99.90
1383;DHT22;685;47.196;11.880;2023-01-30T15:45:43;0.70;99.90
1383;DHT22;685;47.196;11.880;2023-01-30T15:51:10;0.80;99.90
1383;DHT22;685;47.196;11.880;2023-01-30T15:53:42;0.70;99.90
1383;DHT22;685;47.196;11.880;2023-01-30T15:56:16;0.60;99.90
1383;DHT22;685;47.196;11.880;2023-01-30T15:58:46;0.60;99.90
1383;DHT22;685;47.196;11.880;2023-01-30T16:01:17;0.70;99.90
1383;DHT22;685;47.196;11.880;2023-01-30T16:03:45;0.70;99.90
1383;DHT22;685;47.196;11.880;2023-01-30T16:06:32;0.60;99.90
1383;DHT22;685;47.196;11.880;2023-01-30T16:09:02;0.50;99.90
1383;DHT22;685;47.196;11.880;2023-01-30T16:11:34;0.30;99.90
1383;DHT22;685;47.196;11.880;2023-01-30T16:14:02;0.60;99.90
1383;DHT22;685;47.196;11.880;2023-01-30T16:16:30;0.70;99.90
1383;DHT22;685;47.196;11.880;2023-01-30T16:18:59;0.70;99.90
1383;DHT22;685;47.196;11.880;2023-01-30T16:21:30;0.60;99.90
1383;DHT22;685;47.196;11.880;2023-01-30T16:24:02;0.50;99.90
1383;DHT22;685;47.196;11.880;2023-01-30T16:26:32;0.50;99.90
1383;DHT22;685;47.196;11.880;2023-01-30T16:29:03;0.60;99.90
1383;DHT22;685;47.196;11.880;2023-01-30T16:31:31;0.60;99.90
1383;DHT22;685;47.196;11.880;2023-01-30T16:33:59;0.50;99.90
1383;DHT22;685;47.196;11.880;2023-01-30T16:36:32;0.70;99.90
1383;DHT22;685;47.196;11.880;2023-01-30T16:39:23;0.50;99.90
1383;DHT22;685;47.196;11.880;2023-01-30T16:41:54;0.70;99.90
1383;DHT22;685;47.196;11.880;2023-01-30T16:44:24;0.70;99.90
1383;DHT22;685;47.196;11.880;2023-01-30T16:47:00;0.60;99.90
1383;DHT22;685;47.196;11.880;2023-01-30T16:49:39;0.50;99.90
1383;DHT22;685;47.196;11.880;2023-01-30T16:52:16;0.50;99.90